sensor_id;sensor_type;location;lat;lon;timestamp;pressure;altitude;pressure_sealevel;temperature;humidity
76229;BME280;65021;53.174;18.160;2023-12-07T00:00:38;101592.67;;;-2.58;100.00
76229;BME280;65021;53.174;18.160;2023-12-07T00:03:25;101590.02;;;-2.59;100.00
76229;BME280;65021;53.174;18.160;2023-12-07T00:05:52;101591.24;;;-2.58;100.00
76229;BME280;65021;53.174;18.160;2023-12-07T00:08:18;101595.98;;;-2.58;100.00
76229;BME280;65021;53.174;18.160;2023-12-07T00:10:45;101599.07;;;-2.59;100.00
76229;BME280;65021;53.174;18.160;2023-12-07T00:13:11;101603.21;;;-2.58;100.00
76229;BME280;65021;53.174;18.160;2023-12-07T00:15:38;101602.51;;;-2.58;100.00
76229;BME280;65021;53.174;18.160;2023-12-07T00:18:05;101601.61;;;-2.59;100.00
76229;BME280;65021;53.174;18.160;2023-12-07T00:20:32;101606.98;;;-2.58;100.00
76229;BME280;65021;53.174;18.160;2023-12-07T00:22:58;101605.00;;;-2.58;100.00
76229;BME280;65021;53.174;18.160;2023-12-07T00:25:30;101605.67;;;-2.59;100.00
76229;BME280;65021;53.174;18.160;2023-12-07T00:27:57;101602.93;;;-2.61;100.00
76229;BME280;65021;53.174;18.160;2023-12-07T00:30:23;101606.27;;;-2.62;100.00
76229;BME280;65021;53.174;18.160;2023-12-07T00:32:50;101606.51;;;-2.62;100.00
76229;BME280;65021;53.174;18.160;2023-12-07T00:35:17;101609.28;;;-2.63;100.00
76229;BME280;65021;53.174;18.160;2023-12-07T00:37:44;101609.36;;;-2.64;100.00
76229;BME280;65021;53.174;18.160;2023-12-07T00:40:11;101605.17;;;-2.66;100.00
76229;BME280;65021;53.174;18.160;2023-12-07T00:42:38;101607.06;;;-2.67;100.00
76229;BME280;65021;53.174;18.160;2023-12-07T00:45:06;101609.91;;;-2.68;100.00
76229;BME280;65021;53.174;18.160;2023-12-07T00:47:35;101610.48;;;-2.68;100.00
76229;BME280;65021;53.174;18.160;2023-12-07T00:50:03;101609.77;;;-2.68;100.00
76229;BME280;65021;53.174;18.160;2023-12-07T00:52:29;101609.46;;;-2.69;100.00
76229;BME280;65021;53.174;18.160;2023-12-07T00:54:56;101610.61;;;-2.70;100.00
76229;BME280;65021;53.174;18.160;2023-12-07T00:57:30;101610.49;;;-2.71;100.00
76229;BME280;65021;53.174;18.160;2023-12-07T00:59:57;101611.95;;;-2.71;100.00
76229;BME280;65021;53.174;18.160;2023-12-07T01:02:24;101612.52;;;-2.71;100.00
76229;BME280;65021;53.174;18.160;2023-12-07T01:04:51;101616.07;;;-2.70;100.00
76229;BME280;65021;53.174;18.160;2023-12-07T01:07:18;101618.63;;;-2.70;100.00
76229;BME280;65021;53.174;18.160;2023-12-07T01:09:44;101619.83;;;-2.70;100.00
76229;BME280;65021;53.174;18.160;2023-12-07T01:12:12;101622.85;;;-2.69;100.00
76229;BME280;65021;53.174;18.160;2023-12-07T01:14:39;101625.30;;;-2.68;100.00
76229;BME280;65021;53.174;18.160;2023-12-07T01:17:05;101629.74;;;-2.67;100.00
76229;BME280;65021;53.174;18.160;2023-12-07T01:19:32;101635.77;;;-2.65;100.00
76229;BME280;65021;53.174;18.160;2023-12-07T01:21:59;101634.74;;;-2.64;100.00
76229;BME280;65021;53.174;18.160;2023-12-07T01:24:25;101634.94;;;-2.64;100.00
76229;BME280;65021;53.174;18.160;2023-12-07T01:26:52;101633.45;;;-2.63;100.00
76229;BME280;65021;53.174;18.160;2023-12-07T01:29:19;101632.89;;;-2.63;100.00
76229;BME280;65021;53.174;18.160;2023-12-07T01:31:46;101633.27;;;-2.63;100.00
76229;BME280;65021;53.174;18.160;2023-12-07T01:34:12;101631.59;;;-2.63;100.00
76229;BME280;65021;53.174;18.160;2023-12-07T01:36:39;101633.67;;;-2.62;100.00
76229;BME280;65021;53.174;18.160;2023-12-07T01:39:05;101632.36;;;-2.61;100.00
76229;BME280;65021;53.174;18.160;2023-12-07T01:41:32;101629.25;;;-2.61;100.00
76229;BME280;65021;53.174;18.160;2023-12-07T01:43:59;101629.30;;;-2.62;100.00
76229;BME280;65021;53.174;18.160;2023-12-07T01:46:26;101626.23;;;-2.62;100.00
76229;BME280;65021;53.174;18.160;2023-12-07T01:48:52;101627.41;;;-2.61;100.00
76229;BME280;65021;53.174;18.160;2023-12-07T01:51:20;101630.73;;;-2.62;100.00
76229;BME280;65021;53.174;18.160;2023-12-07T01:53:47;101629.25;;;-2.61;100.00
76229;BME280;65021;53.174;18.160;2023-12-07T01:56:15;101630.73;;;-2.62;100.00
76229;BME280;65021;53.174;18.160;2023-12-07T01:58:43;101632.27;;;-2.60;100.00
76229;BME280;65021;53.174;18.160;2023-12-07T02:01:10;101636.16;;;-2.59;100.00
76229;BME280;65021;53.174;18.160;2023-12-07T02:03:41;101634.21;;;-2.58;100.00
76229;BME280;65021;53.174;18.160;2023-12-07T02:06:08;101634.52;;;-2.57;100.00
76229;BME280;65021;53.174;18.160;2023-12-07T02:08:36;101636.74;;;-2.56;100.00
76229;BME280;65021;53.174;18.160;2023-12-07T02:11:08;101638.23;;;-2.54;100.00
76229;BME280;65021;53.174;18.160;2023-12-07T02:13:37;101637.36;;;-2.53;100.00
76229;BME280;65021;53.174;18.160;2023-12-07T02:16:19;101636.50;;;-2.51;100.00
76229;BME280;65021;53.174;18.160;2023-12-07T02:19:03;101638.61;;;-2.49;100.00
76229;BME280;65021;53.174;18.160;2023-12-07T02:21:41;101640.61;;;-2.47;100.00
76229;BME280;65021;53.174;18.160;2023-12-07T02:24:13;101644.21;;;-2.45;100.00
76229;BME280;65021;53.174;18.160;2023-12-07T02:26:42;101638.80;;;-2.45;100.00
76229;BME280;65021;53.174;18.160;2023-12-07T02:29:09;101642.91;;;-2.44;100.00
76229;BME280;65021;53.174;18.160;2023-12-07T02:31:35;101645.39;;;-2.43;100.00
76229;BME280;65021;53.174;18.160;2023-12-07T02:34:02;101644.05;;;-2.43;100.00
76229;BME280;65021;53.174;18.160;2023-12-07T02:36:29;101645.13;;;-2.43;100.00
76229;BME280;65021;53.174;18.160;2023-12-07T02:38:59;101645.45;;;-2.42;100.00
76229;BME280;65021;53.174;18.160;2023-12-07T02:41:28;101646.03;;;-2.43;100.00
76229;BME280;65021;53.174;18.160;2023-12-07T02:43:57;101640.95;;;-2.43;100.00
76229;BME280;65021;53.174;18.160;2023-12-07T02:46:25;101644.16;;;-2.42;100.00
76229;BME280;65021;53.174;18.160;2023-12-07T02:48:51;101643.73;;;-2.42;100.00
76229;BME280;65021;53.174;18.160;2023-12-07T02:51:18;101645.04;;;-2.42;100.00
76229;BME280;65021;53.174;18.160;2023-12-07T02:53:45;101645.25;;;-2.42;100.00
76229;BME280;65021;53.174;18.160;2023-12-07T02:56:11;101646.63;;;-2.43;100.00
76229;BME280;65021;53.174;18.160;2023-12-07T02:58:38;101652.81;;;-2.46;100.00
76229;BME280;65021;53.174;18.160;2023-12-07T03:01:05;101655.88;;;-2.47;100.00
76229;BME280;65021;53.174;18.160;2023-12-07T03:03:32;101655.63;;;-2.50;100.00
76229;BME280;65021;53.174;18.160;2023-12-07T03:05:58;101653.27;;;-2.54;100.00
76229;BME280;65021;53.174;18.160;2023-12-07T03:08:25;101654.59;;;-2.61;100.00
76229;BME280;65021;53.174;18.160;2023-12-07T03:10:51;101656.27;;;-2.68;100.00
76229;BME280;65021;53.174;18.160;2023-12-07T03:13:18;101656.48;;;-2.74;100.00
76229;BME280;65021;53.174;18.160;2023-12-07T03:15:48;101663.05;;;-2.80;100.00
76229;BME280;65021;53.174;18.160;2023-12-07T03:18:15;101662.38;;;-2.84;100.00
76229;BME280;65021;53.174;18.160;2023-12-07T03:20:42;101661.70;;;-2.89;100.00
76229;BME280;65021;53.174;18.160;2023-12-07T03:23:08;101664.25;;;-2.93;100.00
76229;BME280;65021;53.174;18.160;2023-12-07T03:25:35;101666.13;;;-2.98;100.00
76229;BME280;65021;53.174;18.160;2023-12-07T03:28:02;101661.86;;;-3.00;100.00
76229;BME280;65021;53.174;18.160;2023-12-07T03:30:28;101655.59;;;-3.03;100.00
76229;BME280;65021;53.174;18.160;2023-12-07T03:32:55;101651.68;;;-3.06;100.00
76229;BME280;65021;53.174;18.160;2023-12-07T03:35:22;101651.95;;;-3.09;100.00
76229;BME280;65021;53.174;18.160;2023-12-07T03:37:48;101650.70;;;-3.13;100.00
76229;BME280;65021;53.174;18.160;2023-12-07T03:40:15;101648.43;;;-3.16;100.00
76229;BME280;65021;53.174;18.160;2023-12-07T03:42:42;101649.77;;;-3.19;100.00
76229;BME280;65021;53.174;18.160;2023-12-07T03:45:09;101649.38;;;-3.21;100.00
76229;BME280;65021;53.174;18.160;2023-12-07T03:47:36;101649.64;;;-3.22;100.00
76229;BME280;65021;53.174;18.160;2023-12-07T03:50:02;101650.12;;;-3.23;100.00
76229;BME280;65021;53.174;18.160;2023-12-07T03:52:29;101656.23;;;-3.26;100.00
76229;BME280;65021;53.174;18.160;2023-12-07T03:54:56;101662.71;;;-3.28;100.00
76229;BME280;65021;53.174;18.160;2023-12-07T03:57:22;101658.11;;;-3.27;100.00
76229;BME280;65021;53.174;18.160;2023-12-07T03:59:51;101660.52;;;-3.25;100.00
76229;BME280;65021;53.174;18.160;2023-12-07T04:02:18;101659.79;;;-3.23;100.00
76229;BME280;65021;53.174;18.160;2023-12-07T04:04:45;101662.61;;;-3.21;100.00
76229;BME280;65021;53.174;18.160;2023-12-07T04:07:11;101661.61;;;-3.18;100.00
76229;BME280;65021;53.174;18.160;2023-12-07T04:09:38;101664.07;;;-3.15;100.00
76229;BME280;65021;53.174;18.160;2023-12-07T04:12:05;101665.24;;;-3.12;100.00
76229;BME280;65021;53.174;18.160;2023-12-07T04:14:32;101671.69;;;-3.09;100.00
76229;BME280;65021;53.174;18.160;2023-12-07T04:16:58;101671.66;;;-3.04;100.00
76229;BME280;65021;53.174;18.160;2023-12-07T04:19:25;101677.02;;;-3.02;100.00
76229;BME280;65021;53.174;18.160;2023-12-07T04:21:51;101679.41;;;-3.00;100.00
76229;BME280;65021;53.174;18.160;2023-12-07T04:24:18;101684.30;;;-2.98;100.00
76229;BME280;65021;53.174;18.160;2023-12-07T04:26:48;101684.27;;;-2.96;100.00
76229;BME280;65021;53.174;18.160;2023-12-07T04:29:17;101684.56;;;-2.93;100.00
76229;BME280;65021;53.174;18.160;2023-12-07T04:31:44;101685.59;;;-2.90;100.00
76229;BME280;65021;53.174;18.160;2023-12-07T04:34:10;101690.73;;;-2.87;100.00
76229;BME280;65021;53.174;18.160;2023-12-07T04:36:37;101694.05;;;-2.86;100.00
76229;BME280;65021;53.174;18.160;2023-12-07T04:39:04;101701.17;;;-2.84;100.00
76229;BME280;65021;53.174;18.160;2023-12-07T04:41:30;101694.85;;;-2.83;100.00
76229;BME280;65021;53.174;18.160;2023-12-07T04:43:57;101697.47;;;-2.81;100.00
76229;BME280;65021;53.174;18.160;2023-12-07T04:46:26;101699.35;;;-2.82;100.00
76229;BME280;65021;53.174;18.160;2023-12-07T04:48:54;101699.67;;;-2.82;100.00
76229;BME280;65021;53.174;18.160;2023-12-07T04:51:21;101698.20;;;-2.82;100.00
76229;BME280;65021;53.174;18.160;2023-12-07T04:53:48;101699.33;;;-2.82;100.00
76229;BME280;65021;53.174;18.160;2023-12-07T04:56:15;101696.52;;;-2.81;100.00
76229;BME280;65021;53.174;18.160;2023-12-07T04:58:41;101691.15;;;-2.78;100.00
76229;BME280;65021;53.174;18.160;2023-12-07T05:01:08;101688.98;;;-2.74;100.00
76229;BME280;65021;53.174;18.160;2023-12-07T05:03:35;101688.66;;;-2.70;100.00
76229;BME280;65021;53.174;18.160;2023-12-07T05:06:01;101688.61;;;-2.66;100.00
76229;BME280;65021;53.174;18.160;2023-12-07T05:08:28;101688.83;;;-2.62;100.00
76229;BME280;65021;53.174;18.160;2023-12-07T05:10:55;101691.27;;;-2.59;100.00
76229;BME280;65021;53.174;18.160;2023-12-07T05:13:21;101694.68;;;-2.57;100.00
76229;BME280;65021;53.174;18.160;2023-12-07T05:15:48;101700.46;;;-2.54;100.00
76229;BME280;65021;53.174;18.160;2023-12-07T05:18:15;101702.45;;;-2.52;100.00
76229;BME280;65021;53.174;18.160;2023-12-07T05:20:42;101706.21;;;-2.50;100.00
76229;BME280;65021;53.174;18.160;2023-12-07T05:23:09;101709.83;;;-2.48;100.00
76229;BME280;65021;53.174;18.160;2023-12-07T05:25:36;101707.77;;;-2.45;100.00
76229;BME280;65021;53.174;18.160;2023-12-07T05:28:02;101708.47;;;-2.43;100.00
76229;BME280;65021;53.174;18.160;2023-12-07T05:30:29;101707.58;;;-2.41;100.00
76229;BME280;65021;53.174;18.160;2023-12-07T05:32:56;101709.73;;;-2.39;100.00
76229;BME280;65021;53.174;18.160;2023-12-07T05:35:23;101705.44;;;-2.36;100.00
76229;BME280;65021;53.174;18.160;2023-12-07T05:37:49;101702.23;;;-2.35;100.00
76229;BME280;65021;53.174;18.160;2023-12-07T05:40:16;101701.32;;;-2.34;100.00
76229;BME280;65021;53.174;18.160;2023-12-07T05:42:43;101705.77;;;-2.33;100.00
76229;BME280;65021;53.174;18.160;2023-12-07T05:45:09;101708.20;;;-2.32;100.00
76229;BME280;65021;53.174;18.160;2023-12-07T05:47:36;101708.57;;;-2.30;100.00
76229;BME280;65021;53.174;18.160;2023-12-07T05:50:03;101712.18;;;-2.30;100.00
76229;BME280;65021;53.174;18.160;2023-12-07T05:52:30;101713.20;;;-2.29;100.00
76229;BME280;65021;53.174;18.160;2023-12-07T05:54:57;101711.67;;;-2.29;100.00
76229;BME280;65021;53.174;18.160;2023-12-07T05:57:23;101711.73;;;-2.27;100.00
76229;BME280;65021;53.174;18.160;2023-12-07T05:59:50;101708.93;;;-2.28;100.00
76229;BME280;65021;53.174;18.160;2023-12-07T06:02:16;101709.11;;;-2.30;100.00
76229;BME280;65021;53.174;18.160;2023-12-07T06:04:43;101709.64;;;-2.32;100.00
76229;BME280;65021;53.174;18.160;2023-12-07T06:07:10;101714.52;;;-2.32;100.00
76229;BME280;65021;53.174;18.160;2023-12-07T06:09:38;101715.98;;;-2.32;100.00
76229;BME280;65021;53.174;18.160;2023-12-07T06:12:05;101720.23;;;-2.33;100.00
76229;BME280;65021;53.174;18.160;2023-12-07T06:14:32;101720.33;;;-2.34;100.00
76229;BME280;65021;53.174;18.160;2023-12-07T06:16:58;101723.65;;;-2.34;100.00
76229;BME280;65021;53.174;18.160;2023-12-07T06:19:28;101725.15;;;-2.35;100.00
76229;BME280;65021;53.174;18.160;2023-12-07T06:21:57;101728.59;;;-2.35;100.00
76229;BME280;65021;53.174;18.160;2023-12-07T06:24:24;101732.41;;;-2.35;100.00
76229;BME280;65021;53.174;18.160;2023-12-07T06:26:51;101740.44;;;-2.33;100.00
76229;BME280;65021;53.174;18.160;2023-12-07T06:29:18;101742.20;;;-2.33;100.00
76229;BME280;65021;53.174;18.160;2023-12-07T06:31:45;101748.48;;;-2.32;100.00
76229;BME280;65021;53.174;18.160;2023-12-07T06:34:11;101747.43;;;-2.32;100.00
76229;BME280;65021;53.174;18.160;2023-12-07T06:36:38;101755.38;;;-2.32;100.00
76229;BME280;65021;53.174;18.160;2023-12-07T06:39:05;101759.04;;;-2.31;100.00
76229;BME280;65021;53.174;18.160;2023-12-07T06:41:32;101763.01;;;-2.28;100.00
76229;BME280;65021;53.174;18.160;2023-12-07T06:43:59;101761.19;;;-2.26;100.00
76229;BME280;65021;53.174;18.160;2023-12-07T06:46:26;101759.87;;;-2.24;100.00
76229;BME280;65021;53.174;18.160;2023-12-07T06:48:53;101760.36;;;-2.21;100.00
76229;BME280;65021;53.174;18.160;2023-12-07T06:51:19;101758.54;;;-2.19;100.00
76229;BME280;65021;53.174;18.160;2023-12-07T06:53:46;101759.55;;;-2.17;100.00
76229;BME280;65021;53.174;18.160;2023-12-07T06:56:12;101760.93;;;-2.14;100.00
76229;BME280;65021;53.174;18.160;2023-12-07T06:58:40;101767.27;;;-2.12;100.00
76229;BME280;65021;53.174;18.160;2023-12-07T07:01:07;101765.16;;;-2.09;100.00
76229;BME280;65021;53.174;18.160;2023-12-07T07:03:33;101769.10;;;-2.06;100.00
76229;BME280;65021;53.174;18.160;2023-12-07T07:06:01;101765.80;;;-2.04;100.00
76229;BME280;65021;53.174;18.160;2023-12-07T07:08:28;101770.52;;;-2.00;100.00
76229;BME280;65021;53.174;18.160;2023-12-07T07:10:55;101770.90;;;-1.96;100.00
76229;BME280;65021;53.174;18.160;2023-12-07T07:13:22;101769.61;;;-1.92;100.00
76229;BME280;65021;53.174;18.160;2023-12-07T07:15:48;101769.94;;;-1.87;100.00
76229;BME280;65021;53.174;18.160;2023-12-07T07:18:15;101773.49;;;-1.83;100.00
76229;BME280;65021;53.174;18.160;2023-12-07T07:20:42;101774.61;;;-1.77;100.00
76229;BME280;65021;53.174;18.160;2023-12-07T07:23:08;101773.01;;;-1.72;100.00
76229;BME280;65021;53.174;18.160;2023-12-07T07:25:35;101772.36;;;-1.65;100.00
76229;BME280;65021;53.174;18.160;2023-12-07T07:28:03;101776.27;;;-1.60;100.00
76229;BME280;65021;53.174;18.160;2023-12-07T07:30:29;101774.20;;;-1.56;100.00
76229;BME280;65021;53.174;18.160;2023-12-07T07:32:56;101774.57;;;-1.50;100.00
76229;BME280;65021;53.174;18.160;2023-12-07T07:35:23;101771.92;;;-1.43;100.00
76229;BME280;65021;53.174;18.160;2023-12-07T07:37:49;101768.29;;;-1.36;100.00
76229;BME280;65021;53.174;18.160;2023-12-07T07:40:16;101771.59;;;-1.30;100.00
76229;BME280;65021;53.174;18.160;2023-12-07T07:42:42;101769.21;;;-1.24;100.00
76229;BME280;65021;53.174;18.160;2023-12-07T07:45:09;101772.35;;;-1.17;100.00
76229;BME280;65021;53.174;18.160;2023-12-07T07:47:36;101769.67;;;-1.08;100.00
76229;BME280;65021;53.174;18.160;2023-12-07T07:50:04;101772.52;;;-1.00;100.00
76229;BME280;65021;53.174;18.160;2023-12-07T07:52:33;101771.06;;;-0.93;100.00
76229;BME280;65021;53.174;18.160;2023-12-07T07:55:00;101771.85;;;-0.84;100.00
76229;BME280;65021;53.174;18.160;2023-12-07T07:57:29;101771.48;;;-0.79;100.00
76229;BME280;65021;53.174;18.160;2023-12-07T07:59:57;101771.72;;;-0.72;100.00
76229;BME280;65021;53.174;18.160;2023-12-07T08:02:24;101767.64;;;-0.63;100.00
76229;BME280;65021;53.174;18.160;2023-12-07T08:04:51;101766.28;;;-0.55;100.00
76229;BME280;65021;53.174;18.160;2023-12-07T08:07:18;101771.55;;;-0.50;100.00
76229;BME280;65021;53.174;18.160;2023-12-07T08:09:45;101776.64;;;-0.41;100.00
76229;BME280;65021;53.174;18.160;2023-12-07T08:12:11;101778.63;;;-0.31;100.00
76229;BME280;65021;53.174;18.160;2023-12-07T08:14:38;101776.79;;;-0.22;100.00
76229;BME280;65021;53.174;18.160;2023-12-07T08:17:05;101774.80;;;-0.20;100.00
76229;BME280;65021;53.174;18.160;2023-12-07T08:19:31;101770.33;;;-0.23;100.00
76229;BME280;65021;53.174;18.160;2023-12-07T08:21:58;101769.65;;;-0.26;100.00
76229;BME280;65021;53.174;18.160;2023-12-07T08:24:25;101770.64;;;-0.24;100.00
76229;BME280;65021;53.174;18.160;2023-12-07T08:26:51;101771.86;;;-0.22;100.00
76229;BME280;65021;53.174;18.160;2023-12-07T08:29:18;101772.09;;;-0.21;100.00
76229;BME280;65021;53.174;18.160;2023-12-07T08:31:44;101771.90;;;-0.17;100.00
76229;BME280;65021;53.174;18.160;2023-12-07T08:34:13;101774.81;;;-0.13;100.00
76229;BME280;65021;53.174;18.160;2023-12-07T08:36:40;101773.55;;;-0.08;100.00
76229;BME280;65021;53.174;18.160;2023-12-07T08:39:06;101772.65;;;-0.03;100.00
76229;BME280;65021;53.174;18.160;2023-12-07T08:41:36;101775.81;;;-0.02;100.00
76229;BME280;65021;53.174;18.160;2023-12-07T08:44:04;101778.47;;;-0.05;100.00
76229;BME280;65021;53.174;18.160;2023-12-07T08:46:30;101782.29;;;-0.08;100.00
76229;BME280;65021;53.174;18.160;2023-12-07T08:48:57;101785.34;;;-0.11;100.00
76229;BME280;65021;53.174;18.160;2023-12-07T08:51:24;101790.56;;;-0.13;100.00
76229;BME280;65021;53.174;18.160;2023-12-07T08:53:50;101790.78;;;-0.15;100.00
76229;BME280;65021;53.174;18.160;2023-12-07T08:56:19;101794.71;;;-0.14;100.00
76229;BME280;65021;53.174;18.160;2023-12-07T08:58:45;101799.22;;;-0.12;100.00
76229;BME280;65021;53.174;18.160;2023-12-07T09:01:12;101803.23;;;-0.08;100.00
76229;BME280;65021;53.174;18.160;2023-12-07T09:03:38;101796.66;;;-0.06;100.00
76229;BME280;65021;53.174;18.160;2023-12-07T09:06:05;101799.44;;;-0.05;100.00
76229;BME280;65021;53.174;18.160;2023-12-07T09:08:33;101802.45;;;-0.04;100.00
76229;BME280;65021;53.174;18.160;2023-12-07T09:10:59;101800.79;;;-0.00;100.00
76229;BME280;65021;53.174;18.160;2023-12-07T09:13:26;101798.73;;;0.02;100.00
76229;BME280;65021;53.174;18.160;2023-12-07T09:15:54;101798.68;;;0.05;100.00
76229;BME280;65021;53.174;18.160;2023-12-07T09:18:21;101800.59;;;0.06;100.00
76229;BME280;65021;53.174;18.160;2023-12-07T09:20:47;101801.55;;;0.03;100.00
76229;BME280;65021;53.174;18.160;2023-12-07T09:23:14;101802.99;;;0.02;100.00
76229;BME280;65021;53.174;18.160;2023-12-07T09:25:41;101810.09;;;-0.00;100.00
76229;BME280;65021;53.174;18.160;2023-12-07T09:28:08;101811.02;;;-0.04;100.00
76229;BME280;65021;53.174;18.160;2023-12-07T09:30:35;101812.27;;;-0.04;100.00
76229;BME280;65021;53.174;18.160;2023-12-07T09:33:02;101812.95;;;-0.05;100.00
76229;BME280;65021;53.174;18.160;2023-12-07T09:35:31;101811.48;;;-0.05;100.00
76229;BME280;65021;53.174;18.160;2023-12-07T09:38:00;101808.55;;;-0.01;100.00
76229;BME280;65021;53.174;18.160;2023-12-07T09:40:27;101807.12;;;0.00;100.00
76229;BME280;65021;53.174;18.160;2023-12-07T09:42:55;101804.65;;;0.02;100.00
76229;BME280;65021;53.174;18.160;2023-12-07T09:45:22;101796.39;;;0.02;100.00
76229;BME280;65021;53.174;18.160;2023-12-07T09:47:52;101797.70;;;0.02;100.00
76229;BME280;65021;53.174;18.160;2023-12-07T09:50:20;101787.40;;;-0.01;100.00
76229;BME280;65021;53.174;18.160;2023-12-07T09:52:51;101789.62;;;-0.07;100.00
76229;BME280;65021;53.174;18.160;2023-12-07T09:55:19;101786.15;;;-0.07;100.00
76229;BME280;65021;53.174;18.160;2023-12-07T09:57:46;101786.62;;;-0.06;100.00
76229;BME280;65021;53.174;18.160;2023-12-07T10:00:13;101786.41;;;-0.06;100.00
76229;BME280;65021;53.174;18.160;2023-12-07T10:02:45;101784.91;;;-0.02;100.00
76229;BME280;65021;53.174;18.160;2023-12-07T10:05:13;101785.27;;;0.02;100.00
76229;BME280;65021;53.174;18.160;2023-12-07T10:07:41;101782.73;;;0.06;100.00
76229;BME280;65021;53.174;18.160;2023-12-07T10:10:08;101784.27;;;0.03;100.00
76229;BME280;65021;53.174;18.160;2023-12-07T10:12:48;101782.98;;;0.03;100.00
76229;BME280;65021;53.174;18.160;2023-12-07T10:15:18;101780.27;;;0.10;100.00
76229;BME280;65021;53.174;18.160;2023-12-07T10:17:58;101784.36;;;0.18;100.00
76229;BME280;65021;53.174;18.160;2023-12-07T10:20:27;101784.97;;;0.30;100.00
76229;BME280;65021;53.174;18.160;2023-12-07T10:23:09;101782.78;;;0.41;100.00
76229;BME280;65021;53.174;18.160;2023-12-07T10:25:41;101779.64;;;0.53;100.00
76229;BME280;65021;53.174;18.160;2023-12-07T10:28:08;101782.89;;;0.66;100.00
76229;BME280;65021;53.174;18.160;2023-12-07T10:30:37;101784.20;;;0.75;100.00
76229;BME280;65021;53.174;18.160;2023-12-07T10:33:04;101781.13;;;0.85;100.00
76229;BME280;65021;53.174;18.160;2023-12-07T10:35:31;101779.94;;;0.93;100.00
76229;BME280;65021;53.174;18.160;2023-12-07T10:37:58;101778.77;;;0.98;100.00
76229;BME280;65021;53.174;18.160;2023-12-07T10:40:24;101781.84;;;0.99;100.00
76229;BME280;65021;53.174;18.160;2023-12-07T10:42:55;101779.57;;;0.98;100.00
76229;BME280;65021;53.174;18.160;2023-12-07T10:45:24;101771.44;;;1.00;100.00
76229;BME280;65021;53.174;18.160;2023-12-07T10:47:53;101765.73;;;1.03;100.00
76229;BME280;65021;53.174;18.160;2023-12-07T10:50:23;101770.90;;;1.02;100.00
76229;BME280;65021;53.174;18.160;2023-12-07T10:52:54;101775.02;;;0.98;100.00
76229;BME280;65021;53.174;18.160;2023-12-07T10:55:28;101776.40;;;0.97;100.00
76229;BME280;65021;53.174;18.160;2023-12-07T10:57:57;101775.35;;;0.96;100.00
76229;BME280;65021;53.174;18.160;2023-12-07T11:00:26;101763.48;;;0.96;100.00
76229;BME280;65021;53.174;18.160;2023-12-07T11:02:58;101764.83;;;0.98;100.00
76229;BME280;65021;53.174;18.160;2023-12-07T11:05:25;101764.14;;;0.99;100.00
76229;BME280;65021;53.174;18.160;2023-12-07T11:07:57;101762.56;;;0.98;100.00
76229;BME280;65021;53.174;18.160;2023-12-07T11:13:08;101766.34;;;1.00;100.00
76229;BME280;65021;53.174;18.160;2023-12-07T11:15:37;101772.08;;;1.05;100.00
76229;BME280;65021;53.174;18.160;2023-12-07T11:18:05;101770.02;;;1.12;100.00
76229;BME280;65021;53.174;18.160;2023-12-07T11:20:42;101768.70;;;1.16;100.00
76229;BME280;65021;53.174;18.160;2023-12-07T11:23:11;101767.81;;;1.16;100.00
76229;BME280;65021;53.174;18.160;2023-12-07T11:25:38;101766.58;;;1.13;100.00
76229;BME280;65021;53.174;18.160;2023-12-07T11:28:06;101760.48;;;1.14;100.00
76229;BME280;65021;53.174;18.160;2023-12-07T11:30:35;101757.21;;;1.17;100.00
76229;BME280;65021;53.174;18.160;2023-12-07T11:33:06;101761.91;;;1.18;100.00
76229;BME280;65021;53.174;18.160;2023-12-07T11:35:33;101763.45;;;1.15;100.00
76229;BME280;65021;53.174;18.160;2023-12-07T11:38:03;101759.77;;;1.14;100.00
76229;BME280;65021;53.174;18.160;2023-12-07T11:40:40;101754.55;;;1.12;100.00
76229;BME280;65021;53.174;18.160;2023-12-07T11:43:08;101749.50;;;1.09;100.00
76229;BME280;65021;53.174;18.160;2023-12-07T11:45:39;101749.33;;;1.08;100.00
76229;BME280;65021;53.174;18.160;2023-12-07T11:48:09;101747.96;;;1.05;100.00
76229;BME280;65021;53.174;18.160;2023-12-07T11:50:53;101744.70;;;1.01;100.00
76229;BME280;65021;53.174;18.160;2023-12-07T11:53:22;101746.33;;;1.02;100.00
76229;BME280;65021;53.174;18.160;2023-12-07T11:55:51;101748.74;;;1.03;100.00
76229;BME280;65021;53.174;18.160;2023-12-07T11:58:17;101747.41;;;1.03;100.00
76229;BME280;65021;53.174;18.160;2023-12-07T12:00:44;101746.20;;;1.04;100.00
76229;BME280;65021;53.174;18.160;2023-12-07T12:03:14;101746.77;;;1.06;100.00
76229;BME280;65021;53.174;18.160;2023-12-07T12:05:41;101745.63;;;1.10;100.00
76229;BME280;65021;53.174;18.160;2023-12-07T12:08:10;101743.47;;;1.14;100.00
76229;BME280;65021;53.174;18.160;2023-12-07T12:10:38;101744.06;;;1.16;100.00
76229;BME280;65021;53.174;18.160;2023-12-07T12:13:04;101740.95;;;1.16;100.00
76229;BME280;65021;53.174;18.160;2023-12-07T12:15:31;101739.88;;;1.17;100.00
76229;BME280;65021;53.174;18.160;2023-12-07T12:17:58;101737.42;;;1.20;100.00
76229;BME280;65021;53.174;18.160;2023-12-07T12:20:26;101733.52;;;1.19;100.00
76229;BME280;65021;53.174;18.160;2023-12-07T12:22:53;101734.99;;;1.15;100.00
76229;BME280;65021;53.174;18.160;2023-12-07T12:25:23;101738.52;;;1.11;100.00
76229;BME280;65021;53.174;18.160;2023-12-07T12:27:53;101730.80;;;1.08;100.00
76229;BME280;65021;53.174;18.160;2023-12-07T12:30:20;101728.80;;;1.05;100.00
76229;BME280;65021;53.174;18.160;2023-12-07T12:32:49;101735.97;;;1.03;100.00
76229;BME280;65021;53.174;18.160;2023-12-07T12:35:17;101738.41;;;1.04;100.00
76229;BME280;65021;53.174;18.160;2023-12-07T12:37:45;101734.28;;;1.01;100.00